sensor_id;sensor_type;location;lat;lon;timestamp;P1;durP1;ratioP1;P2;durP2;ratioP2
50631;SDS011;49583;45.590;-122.498;2024-03-25T00:00:30;2.00;;;1.80;;
50631;SDS011;49583;45.590;-122.498;2024-03-25T00:05:12;1.60;;;1.40;;
50631;SDS011;49583;45.590;-122.498;2024-03-25T00:07:29;1.50;;;1.40;;
50631;SDS011;49583;45.590;-122.498;2024-03-25T00:09:41;1.50;;;1.20;;
50631;SDS011;49583;45.590;-122.498;2024-03-25T00:14:48;3.30;;;1.30;;
50631;SDS011;49583;45.590;-122.498;2024-03-25T00:17:00;1.30;;;1.20;;
50631;SDS011;49583;45.590;-122.498;2024-03-25T00:19:12;1.70;;;1.10;;
50631;SDS011;49583;45.590;-122.498;2024-03-25T00:21:26;1.60;;;1.10;;
50631;SDS011;49583;45.590;-122.498;2024-03-25T00:23:38;2.90;;;1.20;;
50631;SDS011;49583;45.590;-122.498;2024-03-25T00:25:51;1.30;;;1.10;;
50631;SDS011;49583;45.590;-122.498;2024-03-25T00:28:03;1.50;;;1.40;;
50631;SDS011;49583;45.590;-122.498;2024-03-25T00:30:16;1.20;;;1.10;;
50631;SDS011;49583;45.590;-122.498;2024-03-25T00:32:29;1.60;;;1.20;;
50631;SDS011;49583;45.590;-122.498;2024-03-25T00:34:41;3.80;;;1.60;;
50631;SDS011;49583;45.590;-122.498;2024-03-25T00:36:53;2.30;;;1.90;;
50631;SDS011;49583;45.590;-122.498;2024-03-25T00:39:05;2.90;;;1.90;;
50631;SDS011;49583;45.590;-122.498;2024-03-25T00:41:19;2.50;;;1.80;;
50631;SDS011;49583;45.590;-122.498;2024-03-25T00:43:32;1.50;;;1.40;;
50631;SDS011;49583;45.590;-122.498;2024-03-25T00:45:44;1.30;;;1.20;;
50631;SDS011;49583;45.590;-122.498;2024-03-25T00:47:57;1.90;;;1.30;;
50631;SDS011;49583;45.590;-122.498;2024-03-25T00:50:10;1.40;;;1.30;;
50631;SDS011;49583;45.590;-122.498;2024-03-25T00:52:25;2.20;;;1.20;;
50631;SDS011;49583;45.590;-122.498;2024-03-25T00:54:37;1.50;;;1.40;;
50631;SDS011;49583;45.590;-122.498;2024-03-25T00:56:49;3.30;;;1.60;;
50631;SDS011;49583;45.590;-122.498;2024-03-25T00:59:01;6.30;;;2.20;;
50631;SDS011;49583;45.590;-122.498;2024-03-25T01:01:13;4.00;;;2.10;;
50631;SDS011;49583;45.590;-122.498;2024-03-25T01:05:35;2.00;;;1.70;;
50631;SDS011;49583;45.590;-122.498;2024-03-25T01:07:47;6.80;;;1.70;;
50631;SDS011;49583;45.590;-122.498;2024-03-25T01:09:59;1.60;;;1.50;;
50631;SDS011;49583;45.590;-122.498;2024-03-25T01:12:12;3.10;;;1.70;;
50631;SDS011;49583;45.590;-122.498;2024-03-25T01:14:24;2.40;;;1.50;;
50631;SDS011;49583;45.590;-122.498;2024-03-25T01:16:36;2.10;;;1.70;;
50631;SDS011;49583;45.590;-122.498;2024-03-25T01:18:50;2.10;;;1.90;;
50631;SDS011;49583;45.590;-122.498;2024-03-25T01:21:02;1.90;;;1.80;;
50631;SDS011;49583;45.590;-122.498;2024-03-25T01:23:15;2.10;;;1.50;;
50631;SDS011;49583;45.590;-122.498;2024-03-25T01:25:27;1.30;;;1.20;;
50631;SDS011;49583;45.590;-122.498;2024-03-25T01:29:49;1.70;;;1.40;;
50631;SDS011;49583;45.590;-122.498;2024-03-25T01:32:01;2.20;;;1.50;;
50631;SDS011;49583;45.590;-122.498;2024-03-25T01:34:14;1.40;;;1.30;;
50631;SDS011;49583;45.590;-122.498;2024-03-25T01:36:26;3.90;;;1.80;;
50631;SDS011;49583;45.590;-122.498;2024-03-25T01:38:38;6.10;;;1.40;;
50631;SDS011;49583;45.590;-122.498;2024-03-25T01:40:52;2.20;;;1.40;;
50631;SDS011;49583;45.590;-122.498;2024-03-25T01:43:04;2.00;;;1.20;;
50631;SDS011;49583;45.590;-122.498;2024-03-25T01:45:16;3.30;;;2.20;;
50631;SDS011;49583;45.590;-122.498;2024-03-25T01:47:28;1.50;;;1.40;;
50631;SDS011;49583;45.590;-122.498;2024-03-25T01:49:42;1.60;;;1.40;;
50631;SDS011;49583;45.590;-122.498;2024-03-25T01:54:05;3.70;;;1.60;;
50631;SDS011;49583;45.590;-122.498;2024-03-25T01:59:04;3.40;;;1.90;;
50631;SDS011;49583;45.590;-122.498;2024-03-25T02:03:27;3.80;;;1.80;;
50631;SDS011;49583;45.590;-122.498;2024-03-25T02:05:40;4.90;;;2.10;;
50631;SDS011;49583;45.590;-122.498;2024-03-25T02:07:52;6.30;;;2.90;;
50631;SDS011;49583;45.590;-122.498;2024-03-25T02:10:04;6.20;;;2.50;;
50631;SDS011;49583;45.590;-122.498;2024-03-25T02:12:18;6.10;;;2.40;;
50631;SDS011;49583;45.590;-122.498;2024-03-25T02:14:31;7.70;;;2.70;;
50631;SDS011;49583;45.590;-122.498;2024-03-25T02:16:43;6.10;;;2.20;;
50631;SDS011;49583;45.590;-122.498;2024-03-25T02:18:55;2.70;;;1.90;;
50631;SDS011;49583;45.590;-122.498;2024-03-25T02:21:08;4.30;;;2.40;;
50631;SDS011;49583;45.590;-122.498;2024-03-25T02:23:23;3.30;;;2.40;;
50631;SDS011;49583;45.590;-122.498;2024-03-25T02:25:36;2.50;;;1.70;;
50631;SDS011;49583;45.590;-122.498;2024-03-25T02:27:51;3.20;;;1.90;;
50631;SDS011;49583;45.590;-122.498;2024-03-25T02:30:04;2.20;;;1.40;;
50631;SDS011;49583;45.590;-122.498;2024-03-25T02:32:18;3.50;;;1.90;;
50631;SDS011;49583;45.590;-122.498;2024-03-25T02:34:31;2.70;;;1.80;;
50631;SDS011;49583;45.590;-122.498;2024-03-25T02:36:43;2.80;;;1.90;;
50631;SDS011;49583;45.590;-122.498;2024-03-25T02:38:55;2.60;;;2.00;;
50631;SDS011;49583;45.590;-122.498;2024-03-25T02:41:08;3.30;;;2.20;;
50631;SDS011;49583;45.590;-122.498;2024-03-25T02:43:22;2.80;;;1.80;;
50631;SDS011;49583;45.590;-122.498;2024-03-25T02:45:34;2.90;;;1.80;;
50631;SDS011;49583;45.590;-122.498;2024-03-25T02:49:56;2.90;;;1.90;;
50631;SDS011;49583;45.590;-122.498;2024-03-25T02:54:18;4.10;;;2.30;;
50631;SDS011;49583;45.590;-122.498;2024-03-25T02:56:31;2.70;;;1.80;;
50631;SDS011;49583;45.590;-122.498;2024-03-25T02:58:43;4.10;;;2.00;;
50631;SDS011;49583;45.590;-122.498;2024-03-25T03:00:55;2.80;;;2.40;;
50631;SDS011;49583;45.590;-122.498;2024-03-25T03:05:16;4.00;;;2.30;;
50631;SDS011;49583;45.590;-122.498;2024-03-25T03:07:29;3.70;;;2.40;;
50631;SDS011;49583;45.590;-122.498;2024-03-25T03:09:41;4.80;;;1.90;;
50631;SDS011;49583;45.590;-122.498;2024-03-25T03:11:54;7.10;;;2.30;;
50631;SDS011;49583;45.590;-122.498;2024-03-25T03:14:06;4.80;;;2.40;;
50631;SDS011;49583;45.590;-122.498;2024-03-25T03:16:18;2.90;;;2.30;;
50631;SDS011;49583;45.590;-122.498;2024-03-25T03:18:30;3.20;;;2.30;;
50631;SDS011;49583;45.590;-122.498;2024-03-25T03:20:42;2.20;;;1.80;;
50631;SDS011;49583;45.590;-122.498;2024-03-25T03:22:55;2.80;;;2.10;;
50631;SDS011;49583;45.590;-122.498;2024-03-25T03:25:08;3.50;;;3.20;;
50631;SDS011;49583;45.590;-122.498;2024-03-25T03:27:21;3.80;;;2.20;;
50631;SDS011;49583;45.590;-122.498;2024-03-25T03:29:33;2.30;;;2.10;;
50631;SDS011;49583;45.590;-122.498;2024-03-25T03:31:46;2.30;;;2.10;;
50631;SDS011;49583;45.590;-122.498;2024-03-25T03:33:58;5.50;;;2.40;;
50631;SDS011;49583;45.590;-122.498;2024-03-25T03:38:20;3.10;;;2.60;;
50631;SDS011;49583;45.590;-122.498;2024-03-25T03:40:32;3.90;;;2.10;;
50631;SDS011;49583;45.590;-122.498;2024-03-25T03:42:44;1.80;;;1.70;;
50631;SDS011;49583;45.590;-122.498;2024-03-25T03:44:58;2.60;;;1.80;;
50631;SDS011;49583;45.590;-122.498;2024-03-25T03:49:19;2.10;;;1.50;;
50631;SDS011;49583;45.590;-122.498;2024-03-25T03:51:32;3.30;;;1.90;;
50631;SDS011;49583;45.590;-122.498;2024-03-25T03:53:44;2.50;;;1.70;;
50631;SDS011;49583;45.590;-122.498;2024-03-25T03:55:57;2.40;;;1.90;;
50631;SDS011;49583;45.590;-122.498;2024-03-25T03:58:12;3.10;;;1.90;;
50631;SDS011;49583;45.590;-122.498;2024-03-25T04:00:25;2.00;;;1.80;;
50631;SDS011;49583;45.590;-122.498;2024-03-25T04:02:37;3.20;;;1.60;;
50631;SDS011;49583;45.590;-122.498;2024-03-25T04:04:50;3.50;;;1.90;;
50631;SDS011;49583;45.590;-122.498;2024-03-25T04:07:03;2.30;;;1.80;;
50631;SDS011;49583;45.590;-122.498;2024-03-25T04:09:15;2.20;;;1.70;;
50631;SDS011;49583;45.590;-122.498;2024-03-25T04:11:28;4.00;;;2.10;;
50631;SDS011;49583;45.590;-122.498;2024-03-25T04:15:50;2.50;;;1.80;;
50631;SDS011;49583;45.590;-122.498;2024-03-25T04:18:03;3.10;;;2.30;;
50631;SDS011;49583;45.590;-122.498;2024-03-25T04:20:16;4.10;;;2.20;;
50631;SDS011;49583;45.590;-122.498;2024-03-25T04:22:30;5.10;;;2.00;;
50631;SDS011;49583;45.590;-122.498;2024-03-25T04:24:42;3.60;;;2.10;;
50631;SDS011;49583;45.590;-122.498;2024-03-25T04:29:04;6.20;;;2.60;;
50631;SDS011;49583;45.590;-122.498;2024-03-25T04:31:18;4.80;;;2.30;;
50631;SDS011;49583;45.590;-122.498;2024-03-25T04:33:31;2.70;;;2.10;;
50631;SDS011;49583;45.590;-122.498;2024-03-25T04:35:43;6.20;;;2.20;;
50631;SDS011;49583;45.590;-122.498;2024-03-25T04:37:56;3.20;;;2.00;;
50631;SDS011;49583;45.590;-122.498;2024-03-25T04:40:08;4.70;;;2.20;;
50631;SDS011;49583;45.590;-122.498;2024-03-25T04:42:26;4.50;;;2.30;;
50631;SDS011;49583;45.590;-122.498;2024-03-25T04:44:38;4.50;;;1.90;;
50631;SDS011;49583;45.590;-122.498;2024-03-25T04:46:50;3.10;;;2.10;;
50631;SDS011;49583;45.590;-122.498;2024-03-25T04:49:02;4.00;;;2.30;;
50631;SDS011;49583;45.590;-122.498;2024-03-25T04:51:14;3.40;;;2.00;;
50631;SDS011;49583;45.590;-122.498;2024-03-25T04:53:26;4.80;;;2.00;;
50631;SDS011;49583;45.590;-122.498;2024-03-25T04:55:39;4.40;;;2.20;;
50631;SDS011;49583;45.590;-122.498;2024-03-25T04:57:51;5.70;;;2.00;;
50631;SDS011;49583;45.590;-122.498;2024-03-25T05:00:04;2.00;;;1.50;;
50631;SDS011;49583;45.590;-122.498;2024-03-25T05:02:19;2.10;;;1.70;;
50631;SDS011;49583;45.590;-122.498;2024-03-25T05:04:34;4.20;;;2.00;;
50631;SDS011;49583;45.590;-122.498;2024-03-25T05:08:56;2.70;;;2.00;;
50631;SDS011;49583;45.590;-122.498;2024-03-25T05:11:08;4.10;;;2.00;;
50631;SDS011;49583;45.590;-122.498;2024-03-25T05:13:20;5.80;;;2.40;;
50631;SDS011;49583;45.590;-122.498;2024-03-25T05:15:33;3.30;;;2.10;;
50631;SDS011;49583;45.590;-122.498;2024-03-25T05:19:55;3.50;;;2.40;;
50631;SDS011;49583;45.590;-122.498;2024-03-25T05:22:07;3.00;;;2.60;;
50631;SDS011;49583;45.590;-122.498;2024-03-25T05:24:19;2.90;;;2.70;;
50631;SDS011;49583;45.590;-122.498;2024-03-25T05:26:32;5.60;;;3.20;;
50631;SDS011;49583;45.590;-122.498;2024-03-25T05:28:44;4.60;;;2.70;;
50631;SDS011;49583;45.590;-122.498;2024-03-25T05:31:07;4.30;;;2.60;;
50631;SDS011;49583;45.590;-122.498;2024-03-25T05:33:19;6.90;;;2.90;;
50631;SDS011;49583;45.590;-122.498;2024-03-25T05:35:32;6.90;;;3.90;;
50631;SDS011;49583;45.590;-122.498;2024-03-25T05:37:44;7.90;;;2.60;;
50631;SDS011;49583;45.590;-122.498;2024-03-25T05:42:06;3.90;;;2.70;;
50631;SDS011;49583;45.590;-122.498;2024-03-25T05:44:18;3.60;;;2.70;;
50631;SDS011;49583;45.590;-122.498;2024-03-25T05:46:30;6.10;;;2.80;;
50631;SDS011;49583;45.590;-122.498;2024-03-25T05:50:59;3.60;;;2.90;;
50631;SDS011;49583;45.590;-122.498;2024-03-25T05:53:12;3.40;;;3.00;;
50631;SDS011;49583;45.590;-122.498;2024-03-25T05:55:27;3.00;;;2.30;;
50631;SDS011;49583;45.590;-122.498;2024-03-25T05:57:39;4.00;;;2.60;;
50631;SDS011;49583;45.590;-122.498;2024-03-25T05:59:51;5.20;;;2.70;;
50631;SDS011;49583;45.590;-122.498;2024-03-25T06:02:05;5.20;;;2.90;;
50631;SDS011;49583;45.590;-122.498;2024-03-25T06:04:17;5.10;;;2.60;;
50631;SDS011;49583;45.590;-122.498;2024-03-25T06:06:29;8.70;;;2.40;;
50631;SDS011;49583;45.590;-122.498;2024-03-25T06:08:41;4.10;;;2.80;;
50631;SDS011;49583;45.590;-122.498;2024-03-25T06:13:03;4.20;;;2.90;;
50631;SDS011;49583;45.590;-122.498;2024-03-25T06:15:16;6.00;;;2.70;;
50631;SDS011;49583;45.590;-122.498;2024-03-25T06:17:28;5.40;;;2.80;;
50631;SDS011;49583;45.590;-122.498;2024-03-25T06:19:40;9.90;;;2.70;;
50631;SDS011;49583;45.590;-122.498;2024-03-25T06:21:53;5.20;;;2.70;;
50631;SDS011;49583;45.590;-122.498;2024-03-25T06:24:06;3.10;;;2.20;;
50631;SDS011;49583;45.590;-122.498;2024-03-25T06:26:18;7.90;;;2.50;;
50631;SDS011;49583;45.590;-122.498;2024-03-25T06:28:31;5.20;;;2.60;;
50631;SDS011;49583;45.590;-122.498;2024-03-25T06:30:44;4.70;;;2.00;;
50631;SDS011;49583;45.590;-122.498;2024-03-25T06:33:13;3.30;;;2.50;;
50631;SDS011;49583;45.590;-122.498;2024-03-25T06:35:44;16.80;;;2.90;;
50631;SDS011;49583;45.590;-122.498;2024-03-25T06:37:59;6.40;;;2.50;;
50631;SDS011;49583;45.590;-122.498;2024-03-25T06:40:12;5.90;;;2.70;;
50631;SDS011;49583;45.590;-122.498;2024-03-25T06:42:25;6.80;;;2.90;;
50631;SDS011;49583;45.590;-122.498;2024-03-25T06:44:38;4.50;;;2.30;;
50631;SDS011;49583;45.590;-122.498;2024-03-25T06:46:51;4.90;;;2.40;;
50631;SDS011;49583;45.590;-122.498;2024-03-25T06:49:03;5.90;;;2.60;;
50631;SDS011;49583;45.590;-122.498;2024-03-25T06:51:16;7.60;;;2.80;;
50631;SDS011;49583;45.590;-122.498;2024-03-25T06:55:41;6.80;;;2.60;;
50631;SDS011;49583;45.590;-122.498;2024-03-25T06:58:00;4.30;;;2.10;;
50631;SDS011;49583;45.590;-122.498;2024-03-25T07:00:12;6.80;;;2.50;;
50631;SDS011;49583;45.590;-122.498;2024-03-25T07:02:25;6.60;;;2.50;;
50631;SDS011;49583;45.590;-122.498;2024-03-25T07:04:39;6.50;;;2.50;;
50631;SDS011;49583;45.590;-122.498;2024-03-25T07:06:51;3.60;;;2.40;;
50631;SDS011;49583;45.590;-122.498;2024-03-25T07:09:04;4.30;;;2.80;;
50631;SDS011;49583;45.590;-122.498;2024-03-25T07:11:18;5.70;;;2.40;;
50631;SDS011;49583;45.590;-122.498;2024-03-25T07:13:31;4.20;;;3.00;;
50631;SDS011;49583;45.590;-122.498;2024-03-25T07:15:45;4.50;;;3.10;;
50631;SDS011;49583;45.590;-122.498;2024-03-25T07:18:00;6.80;;;2.60;;
50631;SDS011;49583;45.590;-122.498;2024-03-25T07:20:14;4.20;;;2.60;;
50631;SDS011;49583;45.590;-122.498;2024-03-25T07:22:26;5.20;;;2.70;;
50631;SDS011;49583;45.590;-122.498;2024-03-25T07:24:39;6.60;;;3.40;;
50631;SDS011;49583;45.590;-122.498;2024-03-25T07:26:51;4.20;;;2.50;;
50631;SDS011;49583;45.590;-122.498;2024-03-25T07:29:04;9.00;;;2.80;;
50631;SDS011;49583;45.590;-122.498;2024-03-25T07:31:16;4.30;;;2.50;;
50631;SDS011;49583;45.590;-122.498;2024-03-25T07:33:28;4.10;;;2.70;;
50631;SDS011;49583;45.590;-122.498;2024-03-25T07:35:41;3.50;;;2.60;;
50631;SDS011;49583;45.590;-122.498;2024-03-25T07:37:54;3.30;;;2.50;;
50631;SDS011;49583;45.590;-122.498;2024-03-25T07:40:07;9.30;;;2.80;;
50631;SDS011;49583;45.590;-122.498;2024-03-25T07:42:20;6.60;;;3.00;;
50631;SDS011;49583;45.590;-122.498;2024-03-25T07:46:42;4.60;;;2.50;;
50631;SDS011;49583;45.590;-122.498;2024-03-25T07:48:54;7.50;;;2.60;;
50631;SDS011;49583;45.590;-122.498;2024-03-25T07:51:06;9.60;;;2.40;;
50631;SDS011;49583;45.590;-122.498;2024-03-25T07:53:19;6.80;;;2.90;;
50631;SDS011;49583;45.590;-122.498;2024-03-25T07:55:31;6.90;;;2.50;;
50631;SDS011;49583;45.590;-122.498;2024-03-25T07:57:44;5.50;;;2.90;;
50631;SDS011;49583;45.590;-122.498;2024-03-25T08:02:06;4.70;;;3.40;;
50631;SDS011;49583;45.590;-122.498;2024-03-25T08:07:27;6.20;;;2.60;;
50631;SDS011;49583;45.590;-122.498;2024-03-25T08:09:39;4.10;;;3.20;;
50631;SDS011;49583;45.590;-122.498;2024-03-25T08:11:51;5.10;;;3.00;;
50631;SDS011;49583;45.590;-122.498;2024-03-25T08:14:03;4.90;;;2.50;;
50631;SDS011;49583;45.590;-122.498;2024-03-25T08:18:24;5.30;;;2.70;;
50631;SDS011;49583;45.590;-122.498;2024-03-25T08:20:37;6.10;;;3.50;;
50631;SDS011;49583;45.590;-122.498;2024-03-25T08:22:50;4.80;;;2.70;;
50631;SDS011;49583;45.590;-122.498;2024-03-25T08:25:02;7.00;;;3.10;;
50631;SDS011;49583;45.590;-122.498;2024-03-25T08:27:15;5.60;;;3.20;;
50631;SDS011;49583;45.590;-122.498;2024-03-25T08:31:37;4.10;;;2.50;;
50631;SDS011;49583;45.590;-122.498;2024-03-25T08:33:48;8.10;;;3.50;;
50631;SDS011;49583;45.590;-122.498;2024-03-25T08:36:01;5.90;;;2.50;;
50631;SDS011;49583;45.590;-122.498;2024-03-25T08:38:14;7.50;;;3.10;;
50631;SDS011;49583;45.590;-122.498;2024-03-25T08:40:26;4.80;;;2.70;;
50631;SDS011;49583;45.590;-122.498;2024-03-25T08:42:38;7.00;;;2.70;;
50631;SDS011;49583;45.590;-122.498;2024-03-25T08:44:50;3.40;;;2.60;;
50631;SDS011;49583;45.590;-122.498;2024-03-25T08:47:03;6.10;;;2.50;;
50631;SDS011;49583;45.590;-122.498;2024-03-25T08:49:15;7.50;;;2.60;;
50631;SDS011;49583;45.590;-122.498;2024-03-25T08:51:27;4.30;;;2.60;;
50631;SDS011;49583;45.590;-122.498;2024-03-25T08:53:39;7.00;;;2.80;;
50631;SDS011;49583;45.590;-122.498;2024-03-25T08:55:51;7.50;;;2.20;;
50631;SDS011;49583;45.590;-122.498;2024-03-25T08:58:03;4.80;;;2.40;;
50631;SDS011;49583;45.590;-122.498;2024-03-25T09:02:25;4.20;;;1.90;;
50631;SDS011;49583;45.590;-122.498;2024-03-25T09:04:38;4.90;;;2.30;;
50631;SDS011;49583;45.590;-122.498;2024-03-25T09:06:50;2.90;;;2.00;;
50631;SDS011;49583;45.590;-122.498;2024-03-25T09:09:03;2.70;;;2.10;;
50631;SDS011;49583;45.590;-122.498;2024-03-25T09:11:32;6.10;;;2.00;;
50631;SDS011;49583;45.590;-122.498;2024-03-25T09:15:53;4.00;;;1.80;;
50631;SDS011;49583;45.590;-122.498;2024-03-25T09:18:05;4.40;;;2.00;;
50631;SDS011;49583;45.590;-122.498;2024-03-25T09:20:18;5.30;;;2.10;;
50631;SDS011;49583;45.590;-122.498;2024-03-25T09:24:40;7.50;;;1.90;;
50631;SDS011;49583;45.590;-122.498;2024-03-25T09:26:52;5.70;;;1.80;;
50631;SDS011;49583;45.590;-122.498;2024-03-25T09:29:04;4.80;;;1.90;;
50631;SDS011;49583;45.590;-122.498;2024-03-25T09:31:16;8.00;;;2.20;;
50631;SDS011;49583;45.590;-122.498;2024-03-25T09:33:31;6.60;;;1.90;;
50631;SDS011;49583;45.590;-122.498;2024-03-25T09:35:43;6.30;;;1.90;;
50631;SDS011;49583;45.590;-122.498;2024-03-25T09:37:56;8.70;;;2.00;;
50631;SDS011;49583;45.590;-122.498;2024-03-25T09:40:10;5.80;;;2.00;;
50631;SDS011;49583;45.590;-122.498;2024-03-25T09:42:25;5.60;;;1.90;;
50631;SDS011;49583;45.590;-122.498;2024-03-25T09:44:42;4.50;;;2.20;;
50631;SDS011;49583;45.590;-122.498;2024-03-25T09:46:56;3.80;;;2.20;;
50631;SDS011;49583;45.590;-122.498;2024-03-25T09:49:12;7.10;;;2.90;;
50631;SDS011;49583;45.590;-122.498;2024-03-25T09:51:25;11.40;;;2.50;;
50631;SDS011;49583;45.590;-122.498;2024-03-25T09:53:37;8.20;;;2.20;;
50631;SDS011;49583;45.590;-122.498;2024-03-25T09:55:50;7.00;;;2.10;;
50631;SDS011;49583;45.590;-122.498;2024-03-25T09:58:06;7.10;;;2.30;;
50631;SDS011;49583;45.590;-122.498;2024-03-25T10:00:18;9.60;;;2.60;;
50631;SDS011;49583;45.590;-122.498;2024-03-25T10:02:31;7.10;;;2.60;;
50631;SDS011;49583;45.590;-122.498;2024-03-25T10:04:46;12.40;;;2.40;;
50631;SDS011;49583;45.590;-122.498;2024-03-25T10:06:58;10.50;;;2.90;;
50631;SDS011;49583;45.590;-122.498;2024-03-25T10:09:10;6.00;;;2.20;;
50631;SDS011;49583;45.590;-122.498;2024-03-25T10:11:28;7.40;;;2.60;;
50631;SDS011;49583;45.590;-122.498;2024-03-25T10:13:42;6.40;;;2.30;;
50631;SDS011;49583;45.590;-122.498;2024-03-25T10:15:54;8.90;;;2.50;;
50631;SDS011;49583;45.590;-122.498;2024-03-25T10:18:07;8.30;;;2.40;;
50631;SDS011;49583;45.590;-122.498;2024-03-25T10:20:20;7.80;;;2.60;;
50631;SDS011;49583;45.590;-122.498;2024-03-25T10:22:40;11.90;;;3.20;;
50631;SDS011;49583;45.590;-122.498;2024-03-25T10:24:52;13.50;;;3.00;;
50631;SDS011;49583;45.590;-122.498;2024-03-25T10:27:06;13.30;;;2.80;;
50631;SDS011;49583;45.590;-122.498;2024-03-25T10:29:27;11.20;;;2.50;;
50631;SDS011;49583;45.590;-122.498;2024-03-25T10:31:42;9.50;;;3.10;;
50631;SDS011;49583;45.590;-122.498;2024-03-25T10:33:56;8.50;;;2.40;;
50631;SDS011;49583;45.590;-122.498;2024-03-25T10:36:09;15.10;;;2.40;;
50631;SDS011;49583;45.590;-122.498;2024-03-25T10:38:21;20.30;;;3.50;;
50631;SDS011;49583;45.590;-122.498;2024-03-25T10:40:36;10.80;;;3.40;;
50631;SDS011;49583;45.590;-122.498;2024-03-25T10:42:51;15.90;;;3.60;;
50631;SDS011;49583;45.590;-122.498;2024-03-25T10:45:06;13.60;;;3.30;;
50631;SDS011;49583;45.590;-122.498;2024-03-25T10:47:23;9.30;;;2.60;;
50631;SDS011;49583;45.590;-122.498;2024-03-25T10:49:41;14.30;;;3.00;;
50631;SDS011;49583;45.590;-122.498;2024-03-25T10:51:58;7.60;;;2.80;;
50631;SDS011;49583;45.590;-122.498;2024-03-25T10:54:13;10.40;;;4.00;;
50631;SDS011;49583;45.590;-122.498;2024-03-25T10:56:26;10.30;;;2.60;;
50631;SDS011;49583;45.590;-122.498;2024-03-25T10:58:39;17.40;;;2.70;;
50631;SDS011;49583;45.590;-122.498;2024-03-25T11:00:54;17.80;;;2.90;;
50631;SDS011;49583;45.590;-122.498;2024-03-25T11:03:08;9.80;;;2.90;;
50631;SDS011;49583;45.590;-122.498;2024-03-25T11:05:20;10.50;;;2.80;;
50631;SDS011;49583;45.590;-122.498;2024-03-25T11:07:33;8.50;;;2.00;;
50631;SDS011;49583;45.590;-122.498;2024-03-25T11:09:46;8.60;;;2.90;;
50631;SDS011;49583;45.590;-122.498;2024-03-25T11:11:58;8.50;;;3.20;;
50631;SDS011;49583;45.590;-122.498;2024-03-25T11:14:17;11.20;;;2.50;;
50631;SDS011;49583;45.590;-122.498;2024-03-25T11:16:30;10.20;;;3.30;;
50631;SDS011;49583;45.590;-122.498;2024-03-25T11:18:50;6.90;;;2.50;;
50631;SDS011;49583;45.590;-122.498;2024-03-25T11:21:02;7.60;;;2.70;;
50631;SDS011;49583;45.590;-122.498;2024-03-25T11:23:19;9.10;;;2.50;;
50631;SDS011;49583;45.590;-122.498;2024-03-25T11:25:33;13.00;;;2.70;;
50631;SDS011;49583;45.590;-122.498;2024-03-25T11:27:45;15.70;;;3.60;;
50631;SDS011;49583;45.590;-122.498;2024-03-25T11:32:07;11.00;;;2.60;;
50631;SDS011;49583;45.590;-122.498;2024-03-25T11:34:19;16.60;;;3.10;;
50631;SDS011;49583;45.590;-122.498;2024-03-25T11:38:41;10.10;;;2.40;;
50631;SDS011;49583;45.590;-122.498;2024-03-25T11:40:53;7.70;;;2.10;;
50631;SDS011;49583;45.590;-122.498;2024-03-25T11:43:05;10.10;;;2.50;;
50631;SDS011;49583;45.590;-122.498;2024-03-25T11:45:18;5.90;;;2.30;;
50631;SDS011;49583;45.590;-122.498;2024-03-25T11:47:32;11.80;;;2.40;;
50631;SDS011;49583;45.590;-122.498;2024-03-25T11:49:45;14.60;;;2.60;;
50631;SDS011;49583;45.590;-122.498;2024-03-25T11:52:00;7.30;;;2.60;;
50631;SDS011;49583;45.590;-122.498;2024-03-25T11:54:16;9.00;;;2.90;;
50631;SDS011;49583;45.590;-122.498;2024-03-25T11:56:28;11.20;;;2.60;;
50631;SDS011;49583;45.590;-122.498;2024-03-25T12:00:50;8.60;;;2.50;;
50631;SDS011;49583;45.590;-122.498;2024-03-25T12:03:06;12.60;;;3.50;;
50631;SDS011;49583;45.590;-122.498;2024-03-25T12:05:21;7.40;;;2.30;;
50631;SDS011;49583;45.590;-122.498;2024-03-25T12:07:33;12.90;;;2.50;;
50631;SDS011;49583;45.590;-122.498;2024-03-25T12:12:10;8.60;;;2.40;;
50631;SDS011;49583;45.590;-122.498;2024-03-25T12:14:23;13.70;;;2.60;;
50631;SDS011;49583;45.590;-122.498;2024-03-25T12:16:37;10.40;;;3.10;;
50631;SDS011;49583;45.590;-122.498;2024-03-25T12:18:50;17.40;;;2.80;;
50631;SDS011;49583;45.590;-122.498;2024-03-25T12:21:04;6.80;;;2.40;;
50631;SDS011;49583;45.590;-122.498;2024-03-25T12:23:16;11.40;;;2.70;;
50631;SDS011;49583;45.590;-122.498;2024-03-25T12:27:38;11.30;;;3.50;;
50631;SDS011;49583;45.590;-122.498;2024-03-25T12:30:02;12.70;;;3.00;;
50631;SDS011;49583;45.590;-122.498;2024-03-25T12:32:15;13.30;;;3.00;;
50631;SDS011;49583;45.590;-122.498;2024-03-25T12:34:27;16.50;;;3.70;;
50631;SDS011;49583;45.590;-122.498;2024-03-25T12:36:42;9.10;;;2.60;;
50631;SDS011;49583;45.590;-122.498;2024-03-25T12:41:07;8.00;;;2.50;;
50631;SDS011;49583;45.590;-122.498;2024-03-25T12:43:19;14.40;;;3.30;;
50631;SDS011;49583;45.590;-122.498;2024-03-25T12:45:39;10.80;;;3.00;;
50631;SDS011;49583;45.590;-122.498;2024-03-25T12:47:52;9.80;;;2.90;;
50631;SDS011;49583;45.590;-122.498;2024-03-25T12:50:05;13.70;;;2.80;;
50631;SDS011;49583;45.590;-122.498;2024-03-25T12:52:18;8.30;;;2.70;;
50631;SDS011;49583;45.590;-122.498;2024-03-25T12:54:30;13.10;;;2.90;;
50631;SDS011;49583;45.590;-122.498;2024-03-25T12:56:42;11.90;;;2.60;;
50631;SDS011;49583;45.590;-122.498;2024-03-25T12:58:55;9.20;;;3.30;;
50631;SDS011;49583;45.590;-122.498;2024-03-25T13:01:08;13.70;;;2.90;;
50631;SDS011;49583;45.590;-122.498;2024-03-25T13:03:20;16.70;;;3.90;;
50631;SDS011;49583;45.590;-122.498;2024-03-25T13:07:41;10.60;;;2.80;;
50631;SDS011;49583;45.590;-122.498;2024-03-25T13:12:04;9.00;;;3.10;;
50631;SDS011;49583;45.590;-122.498;2024-03-25T13:14:19;14.20;;;3.20;;
50631;SDS011;49583;45.590;-122.498;2024-03-25T13:16:32;15.50;;;3.50;;
50631;SDS011;49583;45.590;-122.498;2024-03-25T13:18:44;9.10;;;2.80;;
50631;SDS011;49583;45.590;-122.498;2024-03-25T13:23:06;13.20;;;4.60;;
50631;SDS011;49583;45.590;-122.498;2024-03-25T13:25:18;14.90;;;3.30;;
50631;SDS011;49583;45.590;-122.498;2024-03-25T13:27:30;8.60;;;2.50;;
50631;SDS011;49583;45.590;-122.498;2024-03-25T13:29:42;11.60;;;3.80;;
50631;SDS011;49583;45.590;-122.498;2024-03-25T13:34:11;10.00;;;3.00;;
50631;SDS011;49583;45.590;-122.498;2024-03-25T13:38:33;13.60;;;3.20;;
50631;SDS011;49583;45.590;-122.498;2024-03-25T13:40:45;8.20;;;2.80;;
50631;SDS011;49583;45.590;-122.498;2024-03-25T13:42:57;13.80;;;3.20;;
50631;SDS011;49583;45.590;-122.498;2024-03-25T13:45:10;16.10;;;3.70;;
50631;SDS011;49583;45.590;-122.498;2024-03-25T13:47:22;11.50;;;3.30;;
50631;SDS011;49583;45.590;-122.498;2024-03-25T13:49:36;16.20;;;3.70;;
50631;SDS011;49583;45.590;-122.498;2024-03-25T13:51:48;11.60;;;3.90;;
50631;SDS011;49583;45.590;-122.498;2024-03-25T13:53:59;6.90;;;3.10;;
50631;SDS011;49583;45.590;-122.498;2024-03-25T13:56:12;8.50;;;3.50;;
50631;SDS011;49583;45.590;-122.498;2024-03-25T13:58:24;12.00;;;3.30;;
50631;SDS011;49583;45.590;-122.498;2024-03-25T14:02:45;10.80;;;2.90;;
50631;SDS011;49583;45.590;-122.498;2024-03-25T14:04:58;12.00;;;3.30;;
50631;SDS011;49583;45.590;-122.498;2024-03-25T14:07:11;12.70;;;3.60;;
50631;SDS011;49583;45.590;-122.498;2024-03-25T14:09:26;10.70;;;3.00;;
50631;SDS011;49583;45.590;-122.498;2024-03-25T14:11:38;22.50;;;3.90;;
50631;SDS011;49583;45.590;-122.498;2024-03-25T14:13:50;17.50;;;3.70;;